Time;durP1;ratioP1;P1;durP2;ratioP2;P2;SDS_P1;SDS_P2;PMS_P1;PMS_P2;Temp;Humidity;BMP_temperature;BMP_pressure;BME280_temperature;BME280_humidity;BME280_pressure;Samples;Min_cycle;Max_cycle;Signal;HPM_P1;HPM_P2
2024/01/15 00:01:48;;;;;;;2.15;1.50;;;;;;;-1.02;74.60;101766.13;6279779;22;20474;-89
2024/01/15 00:04:18;;;;;;;2.60;1.73;;;;;;;-1.01;74.69;101775.53;6284501;22;20019;-91
2024/01/15 00:06:47;;;;;;;0.10;0.10;;;;;;;-1.06;74.32;101773.44;6281389;22;20244;-87
2024/01/15 00:09:18;;;;;;;1.55;0.65;;;;;;;-1.08;75.36;101787.69;6281466;22;20015;-88
2024/01/15 00:11:47;;;;;;;0.10;0.10;;;;;;;-1.16;75.59;101791.16;6278316;22;20026;-87
2024/01/15 00:14:19;;;;;;;0.00;0.00;;;;;;;-1.23;76.13;101793.00;6277050;22;20035;-88
2024/01/15 00:16:50;;;;;;;2.60;1.60;;;;;;;-1.37;76.32;101787.50;6278514;22;20027;-89
2024/01/15 00:19:21;;;;;;;1.90;1.23;;;;;;;-1.56;75.84;101792.50;6278797;22;20086;-88
2024/01/15 00:21:50;;;;;;;0.45;0.45;;;;;;;-1.67;77.36;101798.22;6279362;22;20031;-89
2024/01/15 00:24:21;;;;;;;3.63;1.58;;;;;;;-1.71;78.27;101806.28;6278612;22;20030;-89
2024/01/15 00:26:49;;;;;;;4.45;2.03;;;;;;;-1.74;78.07;101803.41;6280028;22;20023;-89
2024/01/15 00:29:28;;;;;;;1.90;1.13;;;;;;;-1.76;78.59;101799.88;6278878;22;20106;-90
2024/01/15 00:31:57;;;;;;;2.97;1.42;;;;;;;-1.81;79.09;101804.50;6278316;22;20026;-88
2024/01/15 00:34:26;;;;;;;1.08;0.98;;;;;;;-1.86;79.82;101810.75;6279775;22;20042;-88
2024/01/15 00:36:55;;;;;;;0.38;0.30;;;;;;;-1.90;79.44;101817.19;6278110;22;20019;-87
2024/01/15 00:39:31;;;;;;;0.80;0.47;;;;;;;-1.96;80.31;101819.13;6277287;22;20026;-87
2024/01/15 00:42:00;;;;;;;2.00;1.70;;;;;;;-1.95;80.56;101826.03;6275742;22;20102;-88
2024/01/15 00:44:28;;;;;;;1.17;1.08;;;;;;;-1.98;80.09;101825.69;6276736;22;20016;-89
2024/01/15 00:46:57;;;;;;;0.15;0.15;;;;;;;-1.97;80.38;101829.13;6278076;22;20040;-86
2024/01/15 00:49:34;;;;;;;2.30;0.90;;;;;;;-2.01;81.30;101830.50;6278307;22;20020;-87
2024/01/15 00:52:04;;;;;;;4.40;1.83;;;;;;;-2.11;81.42;101832.84;6277113;22;20054;-86
2024/01/15 00:54:35;;;;;;;6.45;1.77;;;;;;;-2.19;82.64;101819.44;6278670;22;20046;-89
2024/01/15 00:57:09;;;;;;;3.50;2.35;;;;;;;-2.14;83.33;101828.38;6276404;22;20035;-86
2024/01/15 00:59:38;;;;;;;4.28;1.30;;;;;;;-2.10;82.20;101822.00;6279265;22;20019;-87
2024/01/15 01:02:06;;;;;;;3.78;2.03;;;;;;;-2.08;82.63;101822.13;6278439;22;20059;-88
2024/01/15 01:04:36;;;;;;;7.22;2.20;;;;;;;-2.12;82.40;101819.28;6280111;22;20106;-88
2024/01/15 01:07:05;;;;;;;3.95;1.83;;;;;;;-2.12;82.20;101816.75;6278333;22;20039;-91
2024/01/15 01:09:39;;;;;;;3.67;1.52;;;;;;;-2.17;82.18;101817.97;6278616;22;20474;-87
2024/01/15 01:12:09;;;;;;;4.15;1.88;;;;;;;-2.16;82.73;101824.81;6276764;22;20073;-87
2024/01/15 01:14:39;;;;;;;4.22;1.88;;;;;;;-2.18;83.28;101828.81;6271122;22;20024;-87
2024/01/15 01:17:19;;;;;;;4.18;1.83;;;;;;;-2.20;82.77;101827.81;6270710;22;20016;-90
2024/01/15 01:19:52;;;;;;;3.97;2.33;;;;;;;-2.26;82.93;101832.28;6276317;22;20043;-87
2024/01/15 01:22:20;;;;;;;4.63;1.80;;;;;;;-2.23;83.17;101831.69;6276338;22;20050;-90
2024/01/15 01:27:33;;;;;;;2.13;1.48;;;;;;;-2.26;83.62;101832.28;6278765;22;20083;-85
2024/01/15 01:30:02;;;;;;;2.40;1.83;;;;;;;-2.26;83.16;101839.00;6281961;22;20016;-88
2024/01/15 01:35:16;;;;;;;6.00;1.85;;;;;;;-2.30;83.21;101844.50;6279097;22;20368;-87
2024/01/15 01:37:48;;;;;;;2.88;1.63;;;;;;;-2.30;83.49;101853.00;6276028;22;20032;-85
2024/01/15 01:40:24;;;;;;;5.28;1.73;;;;;;;-2.35;83.74;101851.66;6279026;22;20019;-86
2024/01/15 01:42:53;;;;;;;2.67;1.52;;;;;;;-2.49;83.87;101847.75;6277894;22;20024;-86
2024/01/15 01:45:21;;;;;;;0.82;0.45;;;;;;;-2.60;83.18;101845.78;6273824;22;20534;-88
2024/01/15 01:47:58;;;;;;;4.88;2.20;;;;;;;-2.60;83.63;101856.81;6273385;22;20023;-88
2024/01/15 01:50:27;;;;;;;6.47;1.98;;;;;;;-2.64;82.81;101847.13;6270345;22;20101;-87
2024/01/15 01:52:57;;;;;;;5.75;1.70;;;;;;;-2.72;83.45;101842.94;6274648;22;20016;-86
2024/01/15 01:55:39;;;;;;;2.15;1.33;;;;;;;-2.69;82.86;101857.56;6273390;22;20020;-87
2024/01/15 01:58:09;;;;;;;0.52;0.17;;;;;;;-2.76;82.29;101845.91;6275766;22;20043;-87
2024/01/15 02:00:40;;;;;;;1.23;1.20;;;;;;;-2.77;82.60;101851.72;6277323;22;20027;-85
2024/01/15 02:03:10;;;;;;;3.13;1.55;;;;;;;-2.81;82.01;101858.13;6279150;22;20547;-88
2024/01/15 02:05:42;;;;;;;5.18;1.73;;;;;;;-2.85;81.96;101855.13;6274580;22;20019;-85
2024/01/15 02:08:11;;;;;;;5.22;1.27;;;;;;;-2.90;81.68;101862.25;6277181;22;20514;-91
2024/01/15 02:20:57;;;;;;;5.07;1.42;;;;;;;-3.05;81.72;101868.28;6286510;22;20023;-87
2024/01/15 02:23:28;;;;;;;2.92;1.48;;;;;;;-3.04;82.32;101862.50;6276828;22;20012;-84
2024/01/15 02:25:59;;;;;;;2.08;1.38;;;;;;;-3.06;82.18;101864.88;6277179;22;20022;-85
2024/01/15 02:28:29;;;;;;;4.45;1.42;;;;;;;-3.05;82.10;101875.88;6278567;22;20020;-86
2024/01/15 02:31:09;;;;;;;2.67;1.33;;;;;;;-3.02;83.25;101883.81;6278501;22;20022;-87
2024/01/15 02:33:38;;;;;;;3.05;1.92;;;;;;;-2.99;82.89;101881.59;6277633;22;20016;-86
2024/01/15 02:36:07;;;;;;;4.60;1.80;;;;;;;-2.97;82.69;101883.53;6277991;22;20028;-85
2024/01/15 02:38:47;;;;;;;2.38;1.60;;;;;;;-2.96;82.41;101889.47;6279709;22;20072;-86
2024/01/15 02:41:16;;;;;;;4.47;1.10;;;;;;;-3.01;83.03;101893.19;6278069;22;20027;-84
2024/01/15 02:43:45;;;;;;;4.40;2.15;;;;;;;-3.17;81.69;101893.25;6277849;22;20030;-88
2024/01/15 02:46:13;;;;;;;3.50;2.13;;;;;;;-3.34;82.68;101883.94;6277617;22;20030;-85
2024/01/15 02:48:48;;;;;;;2.38;1.30;;;;;;;-3.35;83.64;101889.72;6276639;22;20015;-88
2024/01/15 02:51:17;;;;;;;2.00;1.10;;;;;;;-3.29;84.19;101895.44;6278564;22;20026;-87
2024/01/15 02:53:48;;;;;;;2.72;1.42;;;;;;;-3.25;83.35;101897.53;6278152;22;20011;-88
2024/01/15 03:27:51;;;;;;;4.53;2.10;;;;;;;-3.07;86.29;101912.81;6274648;22;20383;-85
2024/01/15 03:30:20;;;;;;;4.47;1.92;;;;;;;-3.12;85.21;101913.97;6276551;22;20019;-85
2024/01/15 03:32:49;;;;;;;4.22;1.70;;;;;;;-3.16;85.75;101918.75;6275791;22;20020;-85
2024/01/15 03:35:21;;;;;;;4.50;1.67;;;;;;;-3.13;85.63;101910.56;6277444;22;20070;-86
2024/01/15 03:37:50;;;;;;;3.33;1.80;;;;;;;-3.05;86.28;101908.81;6277172;22;20020;-83
2024/01/15 03:40:19;;;;;;;5.18;1.80;;;;;;;-3.01;85.82;101904.19;6277452;22;20103;-84
2024/01/15 03:42:48;;;;;;;10.00;1.80;;;;;;;-2.99;84.87;101902.72;6277511;22;20026;-83
2024/01/15 03:45:20;;;;;;;4.90;2.03;;;;;;;-3.00;84.83;101900.03;6278128;22;20102;-86
2024/01/15 03:47:57;;;;;;;5.60;1.52;;;;;;;-2.96;85.06;101902.13;6278187;22;20027;-85
2024/01/15 03:50:26;;;;;;;2.58;1.42;;;;;;;-2.92;84.65;101913.50;6277364;22;20015;-85
2024/01/15 03:52:55;;;;;;;4.78;1.70;;;;;;;-2.91;84.65;101903.50;6277617;22;20019;-87
2024/01/15 03:55:30;;;;;;;0.82;0.60;;;;;;;-2.90;85.21;101912.91;6278526;22;20020;-85
2024/01/15 03:57:59;;;;;;;3.65;1.35;;;;;;;-2.94;85.07;101915.84;6277735;22;20020;-85
2024/01/15 04:00:30;;;;;;;3.88;1.58;;;;;;;-2.96;85.81;101923.28;6278185;22;20034;-86
2024/01/15 04:02:59;;;;;;;4.47;1.63;;;;;;;-2.94;86.84;101931.06;6278307;22;20018;-85
2024/01/15 04:05:28;;;;;;;6.07;1.73;;;;;;;-2.92;87.31;101924.50;6278188;22;20050;-85
2024/01/15 04:07:57;;;;;;;4.43;1.55;;;;;;;-2.97;87.13;101915.56;6278127;22;20023;-86
2024/01/15 04:10:26;;;;;;;0.10;0.10;;;;;;;-2.93;86.78;101922.72;6277549;22;20022;-86
2024/01/15 04:12:55;;;;;;;4.80;1.52;;;;;;;-2.94;86.71;101931.06;6275052;22;20012;-85
2024/01/15 04:15:24;;;;;;;2.35;0.77;;;;;;;-2.95;88.36;101939.41;6273085;22;20019;-84
2024/01/15 04:18:04;;;;;;;4.75;1.73;;;;;;;-3.01;87.45;101937.13;6274202;22;20020;-85
2024/01/15 04:20:32;;;;;;;0.30;0.30;;;;;;;-3.05;86.71;101926.53;6278893;22;20019;-86
2024/01/15 04:23:01;;;;;;;1.90;1.20;;;;;;;-3.12;87.68;101925.00;6277320;22;20022;-85
2024/01/15 04:25:35;;;;;;;2.92;2.00;;;;;;;-3.17;87.98;101919.47;6278234;22;20050;-84
2024/01/15 04:28:04;;;;;;;4.80;1.75;;;;;;;-3.20;88.67;101931.81;6277001;22;20028;-84
2024/01/15 04:30:33;;;;;;;3.55;1.38;;;;;;;-3.22;87.79;101925.69;6278381;22;20028;-85
2024/01/15 04:33:03;;;;;;;2.13;1.20;;;;;;;-3.22;88.76;101922.28;6279733;22;20043;-85
2024/01/15 04:35:33;;;;;;;2.33;1.58;;;;;;;-3.15;88.39;101929.75;6278757;22;20452;-84
2024/01/15 04:38:05;;;;;;;0.35;0.35;;;;;;;-3.13;87.72;101935.88;6278775;22;20074;-85
2024/01/15 04:40:35;;;;;;;0.00;0.00;;;;;;;-3.07;87.61;101938.13;6277646;22;20015;-84
2024/01/15 04:43:04;;;;;;;2.40;1.55;;;;;;;-3.05;87.22;101939.19;6277931;22;20040;-84
2024/01/15 04:45:33;;;;;;;1.92;1.17;;;;;;;-3.03;87.03;101945.31;6277503;22;20058;-84
2024/01/15 04:48:07;;;;;;;4.18;1.98;;;;;;;-2.99;86.90;101948.31;6278390;22;20023;-87
2024/01/15 04:50:36;;;;;;;2.58;1.52;;;;;;;-2.97;87.78;101951.00;6278228;22;20020;-88
2024/01/15 04:53:06;;;;;;;3.80;1.92;;;;;;;-2.91;88.07;101951.63;6278570;22;20046;-86
2024/01/15 04:55:43;;;;;;;3.80;1.23;;;;;;;-2.95;86.91;101950.44;6279918;22;20019;-85
2024/01/15 04:58:13;;;;;;;2.97;1.80;;;;;;;-2.94;87.13;101951.31;6279554;22;20015;-86
2024/01/15 05:00:42;;;;;;;2.95;1.40;;;;;;;-2.90;86.62;101957.59;6278280;22;20035;-87
2024/01/15 05:03:13;;;;;;;2.35;1.50;;;;;;;-2.95;84.90;101941.94;6278822;22;20019;-85
2024/01/15 05:05:43;;;;;;;2.87;1.17;;;;;;;-2.97;84.96;101940.88;6277438;22;20106;-84
2024/01/15 05:08:12;;;;;;;3.65;1.73;;;;;;;-2.93;84.00;101944.59;6277400;22;20325;-84
2024/01/15 05:10:41;;;;;;;3.45;1.85;;;;;;;-2.91;83.94;101938.94;6276531;22;20020;-85
2024/01/15 05:13:10;;;;;;;1.15;0.85;;;;;;;-2.99;84.31;101937.28;6272977;22;20049;-84
2024/01/15 05:15:39;;;;;;;2.38;1.02;;;;;;;-3.00;83.65;101960.81;6269875;22;20047;-85
2024/01/15 05:18:18;;;;;;;2.53;1.63;;;;;;;-3.02;83.77;101957.25;6273580;22;20513;-84
2024/01/15 05:20:47;;;;;;;2.95;1.83;;;;;;;-2.99;84.88;101953.38;6280501;22;20022;-85
2024/01/15 05:23:16;;;;;;;3.00;1.45;;;;;;;-2.99;83.97;101952.47;6279600;22;20020;-85
2024/01/15 05:39:09;;;;;;;4.18;1.83;;;;;;;-2.89;84.50;101969.50;5085941;28;20435;-87
2024/01/15 05:41:38;;;;;;;6.95;2.38;;;;;;;-2.93;85.53;101975.91;5074666;28;20052;-87
2024/01/15 05:44:10;;;;;;;3.30;2.08;;;;;;;-2.94;85.16;101969.03;5076856;28;20057;-85
2024/01/15 05:46:39;;;;;;;4.65;1.80;;;;;;;-2.95;86.80;101965.63;5075053;28;20045;-86
2024/01/15 05:49:08;;;;;;;3.50;1.55;;;;;;;-2.95;84.72;101967.25;5073274;28;20077;-86
2024/01/15 05:51:37;;;;;;;3.70;1.80;;;;;;;-2.95;86.17;101963.09;5075227;28;20060;-84
2024/01/15 05:54:12;;;;;;;2.65;1.77;;;;;;;-2.94;87.37;101974.09;5074192;28;20053;-86
2024/01/15 05:56:41;;;;;;;4.28;1.75;;;;;;;-2.96;86.21;101967.97;5074982;28;20059;-87
2024/01/15 05:59:10;;;;;;;4.07;1.55;;;;;;;-2.90;85.86;101975.34;5071568;28;20049;-86
2024/01/15 06:01:39;;;;;;;3.47;2.05;;;;;;;-2.91;86.69;101956.69;5074023;28;20052;-86
2024/01/15 06:04:18;;;;;;;2.03;1.30;;;;;;;-2.90;85.96;101955.97;5075669;28;20076;-85
2024/01/15 06:06:47;;;;;;;4.47;1.38;;;;;;;-2.85;85.17;101951.38;5073842;28;20048;-84
2024/01/15 06:09:20;;;;;;;3.22;1.23;;;;;;;-2.84;84.59;101948.06;5075042;28;20499;-85
2024/01/15 06:11:49;;;;;;;2.70;1.02;;;;;;;-2.83;84.63;101953.31;5069935;28;20107;-85
2024/01/15 06:14:19;;;;;;;3.45;1.60;;;;;;;-2.81;83.86;101953.47;5050089;28;20080;-85
2024/01/15 06:16:48;;;;;;;2.20;1.30;;;;;;;-2.85;84.34;101954.78;5039402;28;20048;-84
2024/01/15 06:19:17;;;;;;;3.15;1.52;;;;;;;-2.85;82.57;101947.19;5045115;28;20050;-84
2024/01/15 06:21:46;;;;;;;5.75;2.13;;;;;;;-2.84;83.71;101959.13;5051058;28;20087;-84
2024/01/15 06:24:18;;;;;;;2.72;1.33;;;;;;;-2.84;83.26;101964.19;5051267;28;20107;-85
2024/01/15 06:26:51;;;;;;;4.03;1.50;;;;;;;-2.84;82.77;101969.25;5051645;28;20046;-85
2024/01/15 06:29:20;;;;;;;2.45;1.55;;;;;;;-2.82;82.16;101975.38;5051547;28;20061;-83
2024/01/15 06:32:00;;;;;;;0.00;0.00;;;;;;;-2.86;82.07;101954.63;5054787;28;20085;-85
2024/01/15 06:34:30;;;;;;;3.30;1.55;;;;;;;-2.89;82.04;101964.44;5046185;28;20057;-84
2024/01/15 06:36:59;;;;;;;2.00;1.23;;;;;;;-2.89;81.73;101964.44;5047256;28;20047;-84
2024/01/15 06:39:28;;;;;;;5.00;2.08;;;;;;;-2.85;81.15;101962.38;5041148;28;20057;-83
2024/01/15 06:42:05;;;;;;;2.58;1.50;;;;;;;-2.82;80.19;101966.88;5041820;28;20041;-84
2024/01/15 06:44:34;;;;;;;2.00;1.17;;;;;;;-2.84;80.35;101966.72;5038761;28;20058;-84
2024/01/15 06:47:03;;;;;;;3.75;1.30;;;;;;;-2.79;79.70;101968.09;5033306;28;20053;-83
2024/01/15 06:49:38;;;;;;;2.38;1.17;;;;;;;-2.80;79.73;101963.75;5034525;28;20076;-84
2024/01/15 06:52:07;;;;;;;1.73;1.17;;;;;;;-2.76;79.32;101960.78;5033649;28;20069;-83
2024/01/15 06:54:36;;;;;;;0.10;0.10;;;;;;;-2.78;80.00;101959.72;5034567;28;20053;-83
2024/01/15 06:57:07;;;;;;;1.85;1.23;;;;;;;-2.77;79.83;101966.59;5035004;28;20072;-84
2024/01/15 06:59:38;;;;;;;0.25;0.25;;;;;;;-2.78;78.81;101974.94;5034565;28;20073;-82
2024/01/15 07:02:08;;;;;;;3.78;1.00;;;;;;;-2.83;78.05;101983.69;5037232;28;20559;-84
2024/01/15 07:04:37;;;;;;;2.42;1.35;;;;;;;-2.86;78.14;101978.34;5041036;28;20144;-85
2024/01/15 07:07:06;;;;;;;1.92;0.90;;;;;;;-2.80;79.13;101986.53;5036440;28;20075;-83
2024/01/15 07:09:35;;;;;;;0.00;0.00;;;;;;;-2.90;78.81;101978.75;5033390;28;20128;-85
2024/01/15 07:12:08;;;;;;;0.82;0.25;;;;;;;-2.93;80.15;101978.44;5034289;28;20041;-84
2024/01/15 07:14:42;;;;;;;3.22;1.30;;;;;;;-2.92;81.51;101989.47;5023482;28;20057;-85
2024/01/15 07:17:10;;;;;;;2.92;1.02;;;;;;;-2.93;80.78;101987.66;5026375;28;20060;-84
2024/01/15 07:19:45;;;;;;;1.67;0.98;;;;;;;-2.87;80.68;101999.31;5035441;28;20078;-85
2024/01/15 07:22:17;;;;;;;0.35;0.20;;;;;;;-2.85;79.68;101995.31;5034315;28;20077;-83
2024/01/15 07:24:45;;;;;;;5.07;1.55;;;;;;;-2.84;78.90;101993.66;5034656;28;20058;-84
2024/01/15 07:27:14;;;;;;;1.45;0.90;;;;;;;-2.84;77.97;101989.53;5038279;28;20136;-84
2024/01/15 07:29:58;;;;;;;6.65;2.05;;;;;;;-2.83;77.57;101986.25;5035012;28;20056;-85
2024/01/15 07:32:26;;;;;;;0.00;0.00;;;;;;;-2.83;75.92;101981.16;5035585;28;20041;-83
2024/01/15 07:34:55;;;;;;;0.30;0.30;;;;;;;-2.81;76.17;101977.16;5038998;28;20112;-84
2024/01/15 07:37:29;;;;;;;1.63;0.93;;;;;;;-2.81;75.80;101972.09;5036269;28;20099;-84
2024/01/15 07:39:58;;;;;;;0.20;0.20;;;;;;;-2.78;76.35;101977.47;5034244;28;20064;-84
2024/01/15 07:42:28;;;;;;;0.17;0.17;;;;;;;-2.77;76.05;101976.75;5034517;28;20074;-83
2024/01/15 07:44:59;;;;;;;0.10;0.10;;;;;;;-2.85;76.99;101969.97;5030154;28;20079;-85
2024/01/15 07:47:30;;;;;;;1.20;0.43;;;;;;;-2.84;76.03;101979.38;5035179;28;20053;-84
2024/01/15 07:49:59;;;;;;;0.00;0.00;;;;;;;-2.83;76.45;101981.16;5034842;28;20068;-86
2024/01/15 07:52:28;;;;;;;0.15;0.15;;;;;;;-2.78;76.84;101981.63;5033438;28;20049;-84
2024/01/15 07:54:57;;;;;;;2.10;1.17;;;;;;;-2.79;73.68;101985.81;5036147;28;20045;-85
2024/01/15 07:57:27;;;;;;;0.00;0.00;;;;;;;-2.78;75.11;101992.66;5035958;28;20051;-85
2024/01/15 08:00:03;;;;;;;1.00;0.47;;;;;;;-2.77;75.10;101991.94;5032029;28;20049;-87
2024/01/15 08:02:33;;;;;;;0.55;0.55;;;;;;;-2.77;74.33;101988.53;5032554;28;20057;-86
2024/01/15 08:05:03;;;;;;;0.10;0.10;;;;;;;-2.81;73.13;101979.69;5034437;28;20042;-85
2024/01/15 08:07:38;;;;;;;0.00;0.00;;;;;;;-2.85;70.47;101977.59;5032406;28;20152;-85
2024/01/15 08:10:08;;;;;;;0.63;0.10;;;;;;;-2.99;71.01;101960.97;5029557;28;20132;-83
2024/01/15 08:12:37;;;;;;;0.10;0.10;;;;;;;-3.01;70.56;101964.09;5025276;28;20052;-85
2024/01/15 08:15:18;;;;;;;0.00;0.00;;;;;;;-3.02;70.82;101974.97;5026891;28;20053;-85
2024/01/15 08:17:47;;;;;;;0.30;0.30;;;;;;;-3.06;72.73;101983.88;5027424;28;20136;-84
2024/01/15 08:20:16;;;;;;;0.00;0.00;;;;;;;-3.12;70.51;101980.69;5032018;28;20444;-85
2024/01/15 08:22:47;;;;;;;0.00;0.00;;;;;;;-3.14;71.10;101976.22;5032780;28;20053;-85
2024/01/15 08:25:19;;;;;;;3.47;0.55;;;;;;;-3.12;73.43;101984.88;5033539;28;20053;-85
2024/01/15 08:27:48;;;;;;;4.10;1.40;;;;;;;-3.13;71.37;101978.91;5033494;28;20058;-83
2024/01/15 08:30:21;;;;;;;0.40;0.40;;;;;;;-3.17;70.90;101981.84;5034018;28;20045;-84
2024/01/15 08:32:50;;;;;;;4.13;1.30;;;;;;;-3.20;71.17;101974.84;5030188;28;20398;-85
2024/01/15 08:35:22;;;;;;;3.03;0.75;;;;;;;-3.21;70.03;101984.81;5035579;28;20057;-88
2024/01/15 08:37:51;;;;;;;1.20;0.98;;;;;;;-3.25;70.18;101978.53;5030938;28;20050;-85
2024/01/15 08:40:20;;;;;;;0.03;0.03;;;;;;;-3.31;69.98;101980.44;5034500;28;20069;-85
2024/01/15 08:42:49;;;;;;;0.00;0.00;;;;;;;-3.30;69.48;101982.22;5032619;28;20065;-85
2024/01/15 08:45:24;;;;;;;2.58;1.08;;;;;;;-3.35;69.17;101996.03;5033992;28;20471;-84
2024/01/15 08:47:53;;;;;;;0.00;0.00;;;;;;;-3.36;69.81;101999.31;5035309;28;20065;-84
2024/01/15 08:50:22;;;;;;;0.00;0.00;;;;;;;-3.40;68.26;101992.13;5032458;28;20051;-84
2024/01/15 08:52:51;;;;;;;0.10;0.10;;;;;;;-3.47;67.91;101994.75;5033735;28;20061;-84
2024/01/15 08:58:03;;;;;;;2.63;1.63;;;;;;;-3.56;68.53;102014.03;5029832;28;20042;-83
2024/01/15 09:00:34;;;;;;;1.40;0.93;;;;;;;-3.58;66.91;102009.69;5033078;28;20129;-85
2024/01/15 09:03:08;;;;;;;0.85;0.65;;;;;;;-3.62;67.13;102007.59;5031411;28;20108;-84
2024/01/15 09:05:37;;;;;;;0.00;0.00;;;;;;;-3.60;69.56;102007.72;5034632;28;20052;-85
2024/01/15 09:08:06;;;;;;;0.00;0.00;;;;;;;-3.62;70.42;102011.72;5034663;28;20088;-84
2024/01/15 09:10:35;;;;;;;0.00;0.00;;;;;;;-3.64;67.81;102020.78;5031478;28;20064;-84
2024/01/15 09:13:08;;;;;;;0.00;0.00;;;;;;;-3.66;65.77;102025.69;5026302;28;20050;-85
2024/01/15 09:15:39;;;;;;;0.60;0.50;;;;;;;-3.66;67.47;102022.28;5024531;28;20061;-85
2024/01/15 09:18:08;;;;;;;0.50;0.13;;;;;;;-3.65;66.29;102019.88;5029096;28;20237;-85
2024/01/15 09:20:38;;;;;;;0.00;0.00;;;;;;;-3.69;63.64;102022.81;5032017;28;20081;-85
2024/01/15 09:23:12;;;;;;;1.27;1.00;;;;;;;-3.68;65.62;102019.56;5033854;28;20416;-87
2024/01/15 09:25:40;;;;;;;1.13;0.60;;;;;;;-3.72;65.09;102024.13;5031028;28;20058;-85
2024/01/15 09:28:09;;;;;;;0.77;0.70;;;;;;;-3.71;63.93;102024.31;5033481;28;20491;-85
2024/01/15 09:30:40;;;;;;;0.32;0.32;;;;;;;-3.80;62.31;102024.22;5033746;28;20045;-85
2024/01/15 09:33:20;;;;;;;0.00;0.00;;;;;;;-3.78;61.73;102034.47;5032203;28;20132;-85
2024/01/15 09:35:49;;;;;;;0.00;0.00;;;;;;;-3.85;60.34;102035.47;5028786;28;20065;-86
2024/01/15 09:38:19;;;;;;;1.38;0.82;;;;;;;-3.89;60.83;102038.41;5032220;28;20484;-84
2024/01/15 09:40:48;;;;;;;0.08;0.08;;;;;;;-3.90;62.62;102051.78;5032451;28;20132;-85
2024/01/15 09:43:20;;;;;;;1.42;0.38;;;;;;;-3.97;61.61;102041.72;5032933;28;20061;-84
2024/01/15 09:45:52;;;;;;;1.63;0.70;;;;;;;-3.95;58.87;102055.44;5029715;28;20052;-84
2024/01/15 09:48:21;;;;;;;2.30;0.67;;;;;;;-4.03;58.23;102059.69;5033831;28;20045;-84
2024/01/15 09:50:52;;;;;;;0.47;0.30;;;;;;;-4.01;58.60;102067.41;5031199;28;20049;-85
2024/01/15 09:53:22;;;;;;;1.27;0.65;;;;;;;-4.04;59.54;102067.97;5032096;28;20050;-86
2024/01/15 09:55:52;;;;;;;0.00;0.00;;;;;;;-4.04;59.50;102073.03;5033306;28;20527;-85
2024/01/15 09:58:21;;;;;;;0.00;0.00;;;;;;;-4.04;62.00;102067.09;5033181;28;20045;-85
2024/01/15 10:01:03;;;;;;;1.27;0.52;;;;;;;-4.04;61.42;102077.19;5032270;28;20049;-85
2024/01/15 10:03:31;;;;;;;0.28;0.05;;;;;;;-4.14;59.57;102062.66;5030345;28;20080;-85
2024/01/15 10:06:02;;;;;;;0.00;0.00;;;;;;;-4.15;58.31;102065.03;5031493;28;20045;-84
2024/01/15 10:08:33;;;;;;;0.52;0.20;;;;;;;-4.19;57.19;102071.38;5027183;28;20045;-85
2024/01/15 10:11:02;;;;;;;0.00;0.00;;;;;;;-4.24;59.47;102069.97;5032731;28;20065;-85
2024/01/15 10:13:32;;;;;;;2.00;0.73;;;;;;;-4.29;59.41;102068.56;5023005;28;20063;-86
2024/01/15 10:16:03;;;;;;;0.38;0.15;;;;;;;-4.31;59.29;102082.66;5026788;28;20058;-86
2024/01/15 10:18:44;;;;;;;1.05;0.95;;;;;;;-4.34;60.08;102084.84;5032787;28;20060;-84
2024/01/15 10:21:12;;;;;;;0.00;0.00;;;;;;;-4.34;59.23;102084.84;5035636;28;20099;-84
2024/01/15 10:23:42;;;;;;;2.22;1.05;;;;;;;-4.36;60.29;102086.31;5035641;28;20065;-85
2024/01/15 10:26:11;;;;;;;1.88;0.90;;;;;;;-4.32;57.99;102083.41;5036199;28;20133;-84
2024/01/15 10:28:52;;;;;;;2.38;0.85;;;;;;;-4.35;57.13;102083.97;5036378;28;20138;-86
2024/01/15 10:31:23;;;;;;;0.65;0.55;;;;;;;-4.35;58.02;102091.56;5035527;28;21016;-85
2024/01/15 10:33:53;;;;;;;0.00;0.00;;;;;;;-4.34;58.67;102084.84;5035663;28;20057;-85
2024/01/15 10:36:25;;;;;;;9.43;1.52;;;;;;;-4.34;57.60;102087.38;5035614;28;20057;-83
2024/01/15 10:38:55;;;;;;;1.13;0.52;;;;;;;-4.30;57.60;102097.09;5034095;28;20061;-85
2024/01/15 10:41:24;;;;;;;0.43;0.38;;;;;;;-4.33;58.27;102096.75;5036284;28;20059;-86
2024/01/15 10:43:53;;;;;;;0.00;0.00;;;;;;;-4.36;57.30;102101.47;5029358;28;20068;-84
2024/01/15 10:46:31;;;;;;;0.00;0.00;;;;;;;-4.36;57.49;102097.31;5033640;28;20137;-85
2024/01/15 10:49:00;;;;;;;3.25;0.63;;;;;;;-4.39;56.78;102101.16;5028036;28;20072;-87
2024/01/15 10:51:28;;;;;;;1.17;0.40;;;;;;;-4.33;56.98;102101.81;5035145;28;20049;-83
2024/01/15 10:54:00;;;;;;;2.08;1.35;;;;;;;-4.36;58.22;102086.31;5033320;28;20066;-84
2024/01/15 10:56:34;;;;;;;0.00;0.00;;;;;;;-4.36;54.10;102097.31;5032046;28;20141;-86
2024/01/15 10:59:03;;;;;;;2.75;0.50;;;;;;;-4.38;54.65;102097.88;5028587;28;20067;-84
2024/01/15 11:01:34;;;;;;;3.35;0.82;;;;;;;-4.32;55.06;102106.16;5037432;28;20236;-83
2024/01/15 11:04:14;;;;;;;0.00;0.00;;;;;;;-4.29;54.91;102101.41;5034628;28;20054;-84
2024/01/15 11:06:51;;;;;;;0.00;0.00;;;;;;;-4.34;54.47;102094.97;5034927;28;20060;-84
2024/01/15 11:09:22;;;;;;;0.20;0.20;;;;;;;-4.32;54.49;102104.50;5034237;28;20049;-82
2024/01/15 11:11:55;;;;;;;0.40;0.40;;;;;;;-4.32;56.94;102098.56;5033721;28;20164;-83
2024/01/15 11:14:54;;;;;;;0.00;0.00;;;;;;;-4.29;54.96;102102.31;5027624;28;20503;-84
2024/01/15 11:17:26;;;;;;;0.90;0.90;;;;;;;-4.30;55.71;102092.94;5025758;28;20050;-84
2024/01/15 11:19:56;;;;;;;1.20;0.97;;;;;;;-4.32;54.48;102083.41;5031309;28;20136;-85
2024/01/15 11:22:51;;;;;;;0.75;0.20;;;;;;;-4.32;55.32;102079.25;5036126;28;20107;-85
2024/01/15 11:25:26;;;;;;;0.50;0.40;;;;;;;-4.30;55.28;102087.88;5033347;28;20050;-85
2024/01/15 11:27:55;;;;;;;1.45;0.68;;;;;;;-4.37;55.05;102074.44;5027212;28;20131;-85
2024/01/15 11:30:27;;;;;;;0.30;0.30;;;;;;;-4.36;55.01;102077.09;5031420;28;20476;-86
2024/01/15 11:33:04;;;;;;;2.72;0.85;;;;;;;-4.32;54.74;102080.88;5033014;28;20504;-85
2024/01/15 11:35:52;;;;;;;1.13;0.40;;;;;;;-4.35;54.79;102083.03;5035191;28;20061;-85
2024/01/15 11:38:30;;;;;;;0.00;0.00;;;;;;;-4.35;55.52;102088.09;5027232;28;20058;-85
2024/01/15 11:41:01;;;;;;;0.00;0.00;;;;;;;-4.32;55.69;102090.97;5033028;28;20058;-85
2024/01/15 11:43:33;;;;;;;0.00;0.00;;;;;;;-4.34;54.76;102089.91;5034846;28;20049;-85
2024/01/15 11:46:12;;;;;;;0.00;0.00;;;;;;;-4.38;52.88;102092.81;5032698;28;20096;-85
2024/01/15 11:48:46;;;;;;;0.80;0.45;;;;;;;-4.41;54.14;102088.34;5027581;28;20049;-85
2024/01/15 11:51:24;;;;;;;0.00;0.00;;;;;;;-4.42;54.02;102081.50;5033561;28;20596;-86
2024/01/15 11:54:01;;;;;;;0.00;0.00;;;;;;;-4.40;54.29;102089.22;5033513;28;20111;-86
2024/01/15 11:56:30;;;;;;;0.40;0.20;;;;;;;-4.46;53.81;102080.25;5035320;28;20069;-86
2024/01/15 11:59:09;;;;;;;0.98;0.93;;;;;;;-4.43;53.51;102083.09;5034100;28;20110;-86
2024/01/15 12:01:38;;;;;;;0.00;0.00;;;;;;;-4.46;53.78;102082.78;5032984;28;20134;-86
2024/01/15 12:04:10;;;;;;;1.17;0.75;;;;;;;-4.43;52.30;102082.22;5025232;28;20107;-86
2024/01/15 12:06:46;;;;;;;3.47;0.73;;;;;;;-4.36;53.88;102076.22;5033471;28;20057;-87
2024/01/15 12:09:15;;;;;;;0.03;0.03;;;;;;;-4.31;54.45;102082.66;5034885;28;20155;-86
2024/01/15 12:11:53;;;;;;;0.73;0.70;;;;;;;-4.29;53.55;102068.56;5033401;28;20045;-85
2024/01/15 12:14:29;;;;;;;0.10;0.10;;;;;;;-4.30;53.93;102066.78;5023125;28;20067;-84
2024/01/15 12:16:58;;;;;;;0.00;0.00;;;;;;;-4.26;52.40;102069.81;5024985;28;20053;-84
2024/01/15 12:19:30;;;;;;;1.58;0.77;;;;;;;-4.26;51.80;102058.78;5031955;28;20049;-84
2024/01/15 12:22:04;;;;;;;0.00;0.00;;;;;;;-4.25;51.03;102053.91;5032397;28;20521;-84
2024/01/15 12:24:33;;;;;;;1.73;1.05;;;;;;;-4.23;51.66;102047.41;5028651;28;20053;-85
2024/01/15 12:27:02;;;;;;;1.58;1.08;;;;;;;-4.18;49.66;102050.41;5034318;28;20049;-86
2024/01/15 12:29:30;;;;;;;1.63;0.68;;;;;;;-4.18;48.54;102062.16;5032710;28;20056;-86
2024/01/15 12:32:03;;;;;;;0.45;0.45;;;;;;;-4.18;48.59;102052.06;5033501;28;20049;-85
2024/01/15 12:34:34;;;;;;;0.57;0.55;;;;;;;-4.13;48.89;102073.66;5030584;28;20064;-85
2024/01/15 12:37:03;;;;;;;3.47;1.05;;;;;;;-4.12;48.67;102068.78;5032950;28;20107;-85
2024/01/15 12:39:32;;;;;;;0.88;0.52;;;;;;;-4.11;49.35;102065.53;5032345;28;20080;-85
2024/01/15 12:42:10;;;;;;;0.00;0.00;;;;;;;-4.12;50.47;102057.75;5033473;28;20111;-86
2024/01/15 12:44:39;;;;;;;0.00;0.00;;;;;;;-4.23;48.80;102054.09;5032067;28;20406;-86
2024/01/15 12:47:09;;;;;;;0.17;0.17;;;;;;;-4.21;49.36;102071.22;5033002;28;20046;-86